ΕΜΥ, Εθνική Μετεωρολογική Υπηρεσία - Δελτία Καιρού, Προγνώσεις

ΑΕΡΟΝΑΥΤΙΛΙΑ

GREEK AIRPORTS CODES

LGAT 221730Z AUTO 16004KT 280V220 //// // ////// 19/12 Q1021 RE//=

EUROPEAN AIRPORTS CODES

LFPO 221730Z 18004KT 140V200 9999 FEW022 BKN100 17/14 Q1012TEMPO 4000 SHRA SCT030TCU=